Terminal Aerodrome Forecast
Issued by NWS

Home | Current Version | Previous Version | Text Only | Print | Product List | Glossary On
Versions: 1 2 3 4 5 6 7 8 9 10 11 12 13 14 15 16 17
000
FTUS43 KOAX 071217 AAC
TAFBFF
TAF AMD
KBFF 071217Z 0712/0812 35011KT 1 1/2SM -SN OVC015
     FM071600 32012KT P6SM BKN025
     FM072000 32014KT P6SM BKN060
     FM072200 32013KT P6SM SCT140
     FM080300 29005KT P6SM FEW250=

USA.gov is the U.S. government's official web portal to all federal, state and local government web resources and services.